Time;durP1;ratioP1;P1;durP2;ratioP2;P2;SDS_P1;SDS_P2;PMS_P1;PMS_P2;Temp;Humidity;BMP_temperature;BMP_pressure;BME280_temperature;BME280_humidity;BME280_pressure;Samples;Min_cycle;Max_cycle;Signal;HPM_P1;HPM_P2
2022/08/31 00:05:01;;;;;;;3.87;3.33;;;;;;;;;;5066531;28;20259;-73
2022/08/31 00:07:30;;;;;;;4.07;3.50;;;;;;;;;;5060284;28;20177;-74
2022/08/31 00:09:56;;;;;;;4.23;3.40;;;;;;;;;;5063727;28;20255;-74
2022/08/31 00:12:23;;;;;;;6.40;3.23;;;;;;;;;;5058953;28;20657;-73
2022/08/31 00:14:49;;;;;;;3.47;3.17;;;;;;;;;;5058942;28;20347;-74
2022/08/31 00:17:15;;;;;;;5.00;3.40;;;;;;;;;;5061814;28;20275;-73
2022/08/31 00:19:42;;;;;;;4.07;3.50;;;;;;;;;;5058829;28;20645;-73
2022/08/31 00:22:08;;;;;;;4.17;3.30;;;;;;;;;;5058183;28;20189;-73
2022/08/31 00:24:34;;;;;;;6.03;3.80;;;;;;;;;;5056479;28;20214;-73
2022/08/31 00:27:01;;;;;;;3.87;3.13;;;;;;;;;;5062109;28;20181;-74
2022/08/31 00:29:27;;;;;;;4.17;3.20;;;;;;;;;;5066299;28;20279;-74
2022/08/31 00:31:53;;;;;;;3.53;3.23;;;;;;;;;;5042653;28;20169;-74
2022/08/31 00:34:21;;;;;;;5.83;3.40;;;;;;;;;;5043617;28;20209;-74
2022/08/31 00:36:47;;;;;;;6.67;3.33;;;;;;;;;;5063092;28;20193;-73
2022/08/31 00:39:14;;;;;;;4.03;3.63;;;;;;;;;;5045646;28;20648;-74
2022/08/31 00:41:40;;;;;;;3.83;3.47;;;;;;;;;;5039816;28;20244;-74
2022/08/31 00:44:07;;;;;;;4.37;3.30;;;;;;;;;;5045120;28;20356;-75
2022/08/31 00:46:36;;;;;;;4.40;3.40;;;;;;;;;;5069507;28;20218;-74
2022/08/31 00:49:05;;;;;;;4.87;3.40;;;;;;;;;;5057230;28;20499;-75
2022/08/31 00:51:33;;;;;;;3.87;3.30;;;;;;;;;;5060705;28;20191;-73
2022/08/31 00:54:00;;;;;;;5.07;3.53;;;;;;;;;;5059481;28;20205;-73
2022/08/31 00:56:26;;;;;;;5.40;3.10;;;;;;;;;;5056447;28;20181;-73
2022/08/31 00:58:53;;;;;;;3.30;2.80;;;;;;;;;;5056114;28;20181;-73
2022/08/31 01:01:19;;;;;;;5.13;3.30;;;;;;;;;;5020095;28;20193;-74
2022/08/31 01:03:46;;;;;;;3.43;3.13;;;;;;;;;;5044860;28;20208;-73
2022/08/31 01:06:13;;;;;;;3.57;3.10;;;;;;;;;;5042543;28;20213;-73
2022/08/31 01:08:40;;;;;;;3.90;3.13;;;;;;;;;;5054712;28;20216;-74
2022/08/31 01:11:07;;;;;;;4.17;3.30;;;;;;;;;;5058232;28;20342;-73
2022/08/31 01:13:33;;;;;;;3.37;3.07;;;;;;;;;;5041576;28;20202;-73
2022/08/31 01:16:04;;;;;;;3.90;3.50;;;;;;;;;;5062872;28;20226;-74
2022/08/31 01:18:32;;;;;;;5.70;3.30;;;;;;;;;;5049771;28;20186;-74
2022/08/31 01:21:02;;;;;;;5.03;3.10;;;;;;;;;;5036884;28;20255;-73
2022/08/31 01:23:31;;;;;;;3.43;3.13;;;;;;;;;;5057974;28;20548;-74
2022/08/31 01:25:57;;;;;;;4.73;3.10;;;;;;;;;;5056899;28;20451;-74
2022/08/31 01:28:24;;;;;;;6.27;3.40;;;;;;;;;;5047616;28;20189;-74
2022/08/31 01:30:58;;;;;;;4.97;3.30;;;;;;;;;;5054266;28;20185;-74
2022/08/31 01:33:24;;;;;;;5.07;3.23;;;;;;;;;;5048429;28;20204;-73
2022/08/31 01:35:52;;;;;;;4.87;3.20;;;;;;;;;;5065492;28;20185;-74
2022/08/31 01:38:18;;;;;;;4.90;3.20;;;;;;;;;;5062906;28;20671;-73
2022/08/31 01:40:46;;;;;;;5.87;3.30;;;;;;;;;;5057976;28;20180;-74
2022/08/31 01:43:12;;;;;;;5.50;3.10;;;;;;;;;;5058981;28;20637;-74
2022/08/31 01:45:38;;;;;;;5.30;3.20;;;;;;;;;;5054878;28;20211;-73
2022/08/31 01:48:04;;;;;;;3.30;3.00;;;;;;;;;;5060637;28;20257;-73
2022/08/31 01:50:31;;;;;;;3.30;3.00;;;;;;;;;;5046322;28;20189;-73
2022/08/31 01:52:57;;;;;;;3.97;3.57;;;;;;;;;;5061509;28;20562;-73
2022/08/31 01:55:23;;;;;;;4.33;3.57;;;;;;;;;;5062787;28;20668;-74
2022/08/31 01:57:50;;;;;;;4.40;3.67;;;;;;;;;;5053334;28;20197;-73
2022/08/31 02:00:35;;;;;;;5.27;3.30;;;;;;;;;;5063331;28;20196;-73
2022/08/31 02:03:04;;;;;;;4.13;3.20;;;;;;;;;;5051274;28;20811;-73
2022/08/31 02:05:30;;;;;;;4.30;3.17;;;;;;;;;;5044460;28;20220;-73
2022/08/31 02:07:57;;;;;;;3.30;3.00;;;;;;;;;;5065282;28;20185;-74
2022/08/31 02:10:23;;;;;;;4.30;3.27;;;;;;;;;;5061740;28;20185;-73
2022/08/31 02:12:49;;;;;;;5.70;3.50;;;;;;;;;;5050232;28;20192;-73
2022/08/31 02:15:16;;;;;;;3.93;3.30;;;;;;;;;;5064347;28;20189;-74
2022/08/31 02:17:42;;;;;;;3.93;3.50;;;;;;;;;;5036810;28;20223;-74
2022/08/31 02:20:09;;;;;;;5.43;3.37;;;;;;;;;;5075276;28;20672;-74
2022/08/31 02:22:35;;;;;;;6.47;3.70;;;;;;;;;;5067470;28;20169;-73
2022/08/31 02:25:01;;;;;;;5.77;3.73;;;;;;;;;;5068194;28;20213;-73
2022/08/31 02:27:28;;;;;;;4.10;3.53;;;;;;;;;;5050405;28;20189;-73
2022/08/31 02:29:54;;;;;;;3.83;3.43;;;;;;;;;;5056309;28;20381;-73
2022/08/31 02:32:21;;;;;;;7.77;3.80;;;;;;;;;;5049067;28;20189;-74
2022/08/31 02:34:48;;;;;;;4.20;3.80;;;;;;;;;;5060891;28;20262;-74
2022/08/31 02:37:15;;;;;;;4.97;3.50;;;;;;;;;;5056676;28;20655;-73
2022/08/31 02:39:41;;;;;;;4.90;3.30;;;;;;;;;;5044032;28;20178;-74
2022/08/31 02:42:07;;;;;;;4.73;4.00;;;;;;;;;;5047358;28;20185;-73
2022/08/31 02:44:33;;;;;;;3.87;3.50;;;;;;;;;;5070445;28;20220;-73
2022/08/31 02:47:00;;;;;;;5.30;4.30;;;;;;;;;;5062524;28;20224;-73
2022/08/31 02:49:44;;;;;;;5.57;4.40;;;;;;;;;;5060846;28;20221;-74
2022/08/31 02:52:10;;;;;;;5.30;4.13;;;;;;;;;;5049665;28;20239;-73
2022/08/31 02:54:37;;;;;;;4.80;3.90;;;;;;;;;;5041998;28;20293;-73
2022/08/31 02:57:03;;;;;;;4.97;4.07;;;;;;;;;;5062153;28;20544;-75
2022/08/31 02:59:29;;;;;;;5.00;4.50;;;;;;;;;;5060340;28;20277;-74
2022/08/31 03:01:57;;;;;;;6.47;4.57;;;;;;;;;;5043376;28;20256;-73
2022/08/31 03:04:23;;;;;;;4.73;4.33;;;;;;;;;;5060763;28;20533;-73
2022/08/31 03:06:49;;;;;;;5.00;4.60;;;;;;;;;;5044499;28;20222;-74
2022/08/31 03:09:15;;;;;;;4.90;4.40;;;;;;;;;;5039765;28;20235;-74
2022/08/31 03:11:42;;;;;;;4.67;4.27;;;;;;;;;;5042116;28;20182;-73
2022/08/31 03:14:09;;;;;;;4.93;4.53;;;;;;;;;;5047837;28;20198;-74
2022/08/31 03:16:35;;;;;;;4.77;4.37;;;;;;;;;;5045624;28;20202;-74
2022/08/31 03:19:01;;;;;;;5.13;4.60;;;;;;;;;;5047492;28;20569;-73
2022/08/31 03:21:27;;;;;;;5.40;4.77;;;;;;;;;;5043912;28;20172;-74
2022/08/31 03:23:54;;;;;;;4.63;4.23;;;;;;;;;;5048633;28;20192;-73
2022/08/31 03:26:20;;;;;;;5.17;4.67;;;;;;;;;;5042419;28;20569;-73
2022/08/31 03:28:46;;;;;;;5.87;5.10;;;;;;;;;;5064129;28;20267;-73
2022/08/31 03:31:42;;;;;;;5.63;5.10;;;;;;;;;;5052514;28;20181;-73
2022/08/31 03:34:09;;;;;;;6.87;5.30;;;;;;;;;;5046786;28;20305;-73
2022/08/31 03:36:35;;;;;;;5.47;5.07;;;;;;;;;;5049176;28;20182;-74
2022/08/31 03:39:01;;;;;;;6.50;5.10;;;;;;;;;;5071525;28;20173;-74
2022/08/31 03:41:27;;;;;;;5.60;5.10;;;;;;;;;;5052401;28;20267;-73
2022/08/31 03:43:54;;;;;;;6.50;5.00;;;;;;;;;;5041738;28;21373;-73
2022/08/31 03:46:21;;;;;;;5.80;5.20;;;;;;;;;;5039553;28;20189;-73
2022/08/31 03:48:47;;;;;;;5.83;5.33;;;;;;;;;;5040525;28;20186;-74
2022/08/31 03:51:14;;;;;;;5.90;5.33;;;;;;;;;;5047571;28;20662;-74
2022/08/31 03:53:41;;;;;;;5.37;4.97;;;;;;;;;;5050063;28;20573;-74
2022/08/31 03:56:08;;;;;;;5.23;4.73;;;;;;;;;;5045656;28;20759;-74
2022/08/31 03:58:37;;;;;;;5.97;5.27;;;;;;;;;;5047001;28;20222;-73
2022/08/31 04:01:06;;;;;;;5.80;5.30;;;;;;;;;;5054446;28;20276;-74
2022/08/31 04:03:55;;;;;;;5.93;5.43;;;;;;;;;;5058578;28;20535;-73
2022/08/31 04:07:00;;;;;;;7.20;5.00;;;;;;;;;;5004380;28;20220;-73
2022/08/31 04:09:46;;;;;;;5.03;4.63;;;;;;;;;;5008620;28;20179;-73
2022/08/31 04:12:31;;;;;;;5.27;4.77;;;;;;;;;;5051148;28;20506;-73
2022/08/31 04:15:23;;;;;;;5.23;4.80;;;;;;;;;;5068048;28;20240;-74
2022/08/31 04:18:19;;;;;;;5.73;5.10;;;;;;;;;;5076519;28;20172;-73
2022/08/31 04:20:47;;;;;;;5.40;5.00;;;;;;;;;;5051864;28;20503;-74
2022/08/31 04:23:13;;;;;;;5.13;4.70;;;;;;;;;;5046942;28;20214;-74
2022/08/31 04:25:48;;;;;;;7.33;5.03;;;;;;;;;;5050171;28;20209;-73
2022/08/31 04:28:15;;;;;;;5.63;5.17;;;;;;;;;;5070420;28;20188;-73
2022/08/31 04:30:42;;;;;;;5.63;5.13;;;;;;;;;;5049566;28;20271;-74
2022/08/31 04:33:09;;;;;;;5.47;4.93;;;;;;;;;;5047371;28;20260;-75
2022/08/31 04:35:38;;;;;;;5.43;4.93;;;;;;;;;;5047107;28;20217;-74
2022/08/31 04:38:04;;;;;;;7.27;5.30;;;;;;;;;;5064635;28;21014;-73
2022/08/31 04:40:31;;;;;;;5.73;5.23;;;;;;;;;;5052988;28;20210;-74
2022/08/31 04:42:58;;;;;;;5.57;5.07;;;;;;;;;;5037210;28;21536;-75
2022/08/31 04:45:25;;;;;;;5.60;5.10;;;;;;;;;;5042744;28;20216;-73
2022/08/31 04:47:52;;;;;;;6.23;5.60;;;;;;;;;;5045710;28;20597;-74
2022/08/31 04:50:18;;;;;;;5.40;4.90;;;;;;;;;;5071954;28;20255;-74
2022/08/31 04:52:55;;;;;;;5.00;4.60;;;;;;;;;;5048132;28;20226;-73
2022/08/31 04:55:21;;;;;;;5.73;5.10;;;;;;;;;;5042767;28;20537;-74
2022/08/31 04:57:48;;;;;;;5.43;4.90;;;;;;;;;;5045233;28;20272;-73
2022/08/31 05:00:15;;;;;;;4.93;4.50;;;;;;;;;;5056529;28;20699;-74
2022/08/31 05:03:13;;;;;;;4.90;4.40;;;;;;;;;;5051179;28;20645;-73
2022/08/31 05:05:41;;;;;;;7.37;5.20;;;;;;;;;;5048472;28;20281;-74
2022/08/31 05:08:07;;;;;;;5.90;5.30;;;;;;;;;;5060491;28;20252;-73
2022/08/31 05:10:34;;;;;;;5.50;5.00;;;;;;;;;;5036587;28;20223;-75
2022/08/31 05:13:01;;;;;;;5.67;4.97;;;;;;;;;;5042586;28;20209;-74
2022/08/31 05:15:27;;;;;;;5.60;5.03;;;;;;;;;;5034149;28;20228;-74
2022/08/31 05:17:53;;;;;;;5.27;4.77;;;;;;;;;;5043900;28;20705;-73
2022/08/31 05:20:20;;;;;;;7.13;5.50;;;;;;;;;;5043340;28;20181;-73
2022/08/31 05:22:46;;;;;;;6.33;5.53;;;;;;;;;;5037035;28;20245;-74
2022/08/31 05:25:12;;;;;;;6.80;4.40;;;;;;;;;;5037171;28;20197;-74
2022/08/31 05:27:40;;;;;;;5.90;5.17;;;;;;;;;;5049383;28;20176;-75
2022/08/31 05:30:07;;;;;;;5.90;5.27;;;;;;;;;;5045903;28;20184;-73
2022/08/31 05:32:33;;;;;;;5.67;5.00;;;;;;;;;;5054719;28;20671;-74
2022/08/31 05:35:01;;;;;;;6.57;5.30;;;;;;;;;;5047977;28;20679;-73
2022/08/31 05:37:27;;;;;;;5.80;5.30;;;;;;;;;;5043130;28;20539;-73
2022/08/31 05:39:53;;;;;;;8.33;5.43;;;;;;;;;;5037205;28;20649;-75
2022/08/31 05:42:20;;;;;;;6.03;4.70;;;;;;;;;;5043442;28;20181;-73
2022/08/31 05:44:47;;;;;;;7.27;4.97;;;;;;;;;;5078058;28;20212;-73
2022/08/31 05:47:13;;;;;;;6.23;4.43;;;;;;;;;;5026508;28;20589;-74
2022/08/31 05:49:41;;;;;;;4.87;4.47;;;;;;;;;;5054330;28;20255;-73
2022/08/31 05:52:09;;;;;;;4.57;4.17;;;;;;;;;;5046083;28;20230;-73
2022/08/31 05:54:35;;;;;;;4.70;4.20;;;;;;;;;;5045993;28;20279;-73
2022/08/31 05:57:02;;;;;;;4.80;4.27;;;;;;;;;;5057190;28;20189;-73
2022/08/31 05:59:30;;;;;;;6.03;4.80;;;;;;;;;;5048551;28;20182;-73
2022/08/31 06:01:56;;;;;;;7.03;5.60;;;;;;;;;;5049323;28;20379;-74
2022/08/31 06:04:26;;;;;;;7.67;5.97;;;;;;;;;;5052005;28;20767;-74
2022/08/31 06:06:52;;;;;;;6.97;6.30;;;;;;;;;;5052128;28;20182;-75
2022/08/31 06:09:22;;;;;;;10.07;6.63;;;;;;;;;;5052299;28;20643;-75
2022/08/31 06:11:50;;;;;;;7.80;6.10;;;;;;;;;;5050342;28;20174;-74
2022/08/31 06:14:17;;;;;;;7.47;6.77;;;;;;;;;;5050958;28;20299;-75
2022/08/31 06:16:44;;;;;;;5.30;4.70;;;;;;;;;;5057922;28;20267;-74
2022/08/31 06:19:12;;;;;;;5.60;4.07;;;;;;;;;;5056201;28;20652;-74
2022/08/31 06:21:41;;;;;;;4.80;4.30;;;;;;;;;;5043507;28;20209;-74
2022/08/31 06:24:09;;;;;;;6.83;3.90;;;;;;;;;;5039625;28;20202;-74
2022/08/31 06:26:36;;;;;;;4.77;4.20;;;;;;;;;;5043810;28;20185;-74
2022/08/31 06:29:06;;;;;;;5.17;4.23;;;;;;;;;;5038928;28;20563;-73
2022/08/31 06:31:36;;;;;;;4.40;3.90;;;;;;;;;;5051173;28;20523;-75
2022/08/31 06:34:05;;;;;;;5.37;4.10;;;;;;;;;;5045847;28;20211;-76
2022/08/31 06:36:50;;;;;;;4.43;4.03;;;;;;;;;;5066603;28;20192;-74
2022/08/31 06:39:28;;;;;;;4.30;3.90;;;;;;;;;;5062243;28;21506;-74
2022/08/31 06:42:08;;;;;;;5.90;4.10;;;;;;;;;;5048508;28;20193;-74
2022/08/31 06:45:00;;;;;;;4.20;3.80;;;;;;;;;;5074153;28;20236;-74
2022/08/31 06:47:37;;;;;;;4.83;3.97;;;;;;;;;;5045472;28;20411;-74
2022/08/31 06:50:05;;;;;;;7.97;4.17;;;;;;;;;;5046808;28;20261;-71
2022/08/31 06:52:31;;;;;;;6.30;4.17;;;;;;;;;;5058876;28;20239;-72
2022/08/31 06:55:21;;;;;;;10.43;4.77;;;;;;;;;;5049146;28;20257;-71
2022/08/31 06:58:10;;;;;;;11.63;6.00;;;;;;;;;;5060666;28;20284;-71
2022/08/31 07:01:06;;;;;;;8.70;5.63;;;;;;;;;;5015760;28;20287;-71
2022/08/31 07:03:57;;;;;;;12.20;6.40;;;;;;;;;;5065081;28;20217;-71
2022/08/31 07:06:27;;;;;;;11.17;6.73;;;;;;;;;;5058587;28;20217;-72
2022/08/31 07:08:56;;;;;;;10.50;6.83;;;;;;;;;;5053883;28;20247;-71
2022/08/31 07:11:22;;;;;;;15.47;7.77;;;;;;;;;;5055221;28;22020;-72
2022/08/31 07:13:50;;;;;;;13.37;7.70;;;;;;;;;;5046933;28;20208;-72
2022/08/31 07:16:19;;;;;;;13.13;6.97;;;;;;;;;;5053172;28;20296;-71
2022/08/31 07:18:46;;;;;;;9.43;6.90;;;;;;;;;;5057678;28;20437;-72
2022/08/31 07:21:14;;;;;;;9.80;7.40;;;;;;;;;;5056237;28;20188;-72
2022/08/31 07:23:40;;;;;;;9.43;6.77;;;;;;;;;;5072069;28;20215;-71
2022/08/31 07:26:17;;;;;;;14.47;6.97;;;;;;;;;;5048015;28;20240;-71
2022/08/31 07:28:43;;;;;;;9.57;7.80;;;;;;;;;;5048090;28;20174;-72
2022/08/31 07:31:14;;;;;;;10.03;7.30;;;;;;;;;;5052236;28;20207;-71
2022/08/31 07:48:45;;;;;;;10.13;7.57;;;;;;;;;;5060769;28;20189;-71
2022/08/31 07:51:30;;;;;;;8.80;7.53;;;;;;;;;;5060333;28;20552;-72
2022/08/31 07:54:10;;;;;;;11.43;7.87;;;;;;;;;;5040182;28;20761;-71
2022/08/31 07:56:45;;;;;;;10.13;7.63;;;;;;;;;;5061604;28;20309;-71
2022/08/31 07:59:13;;;;;;;8.73;7.17;;;;;;;;;;5037347;28;20185;-72
2022/08/31 08:01:42;;;;;;;9.20;7.87;;;;;;;;;;5043427;28;20181;-72
2022/08/31 08:04:12;;;;;;;11.90;8.93;;;;;;;;;;5043200;28;20577;-72
2022/08/31 08:06:59;;;;;;;9.23;7.97;;;;;;;;;;5060401;28;20189;-72
2022/08/31 08:09:43;;;;;;;9.27;8.10;;;;;;;;;;5058770;28;20189;-72
2022/08/31 08:12:38;;;;;;;10.57;8.30;;;;;;;;;;5059063;28;20189;-72
2022/08/31 08:15:12;;;;;;;8.67;7.70;;;;;;;;;;5058552;28;20447;-71
2022/08/31 08:18:12;;;;;;;13.47;8.17;;;;;;;;;;5028078;28;20216;-72
2022/08/31 08:20:42;;;;;;;9.30;7.47;;;;;;;;;;5041362;28;20636;-72
2022/08/31 08:23:11;;;;;;;9.27;7.83;;;;;;;;;;5034654;28;20213;-72
2022/08/31 08:26:00;;;;;;;8.63;7.10;;;;;;;;;;5057356;28;20197;-71
2022/08/31 08:28:48;;;;;;;8.27;6.77;;;;;;;;;;5061576;28;20186;-72
2022/08/31 08:31:17;;;;;;;10.80;7.20;;;;;;;;;;5039605;28;20678;-72
2022/08/31 08:33:44;;;;;;;7.90;6.63;;;;;;;;;;5043796;28;20255;-72
2022/08/31 08:36:10;;;;;;;8.73;7.00;;;;;;;;;;5039333;28;20292;-72
2022/08/31 08:38:39;;;;;;;7.40;6.60;;;;;;;;;;5039534;28;20246;-72
2022/08/31 08:41:11;;;;;;;9.47;6.60;;;;;;;;;;5040413;28;20189;-72
2022/08/31 08:43:38;;;;;;;8.70;7.13;;;;;;;;;;5023398;28;20292;-72
2022/08/31 08:46:07;;;;;;;8.23;7.00;;;;;;;;;;5042411;28;20228;-72
2022/08/31 08:48:36;;;;;;;8.93;6.87;;;;;;;;;;5042871;28;20185;-72
2022/08/31 08:51:05;;;;;;;9.27;7.40;;;;;;;;;;5039191;28;20185;-72
2022/08/31 08:53:43;;;;;;;8.63;6.97;;;;;;;;;;5040742;28;20199;-72
2022/08/31 08:56:21;;;;;;;9.00;7.40;;;;;;;;;;5041328;28;20185;-72
2022/08/31 08:58:47;;;;;;;8.23;6.87;;;;;;;;;;5042980;28;20189;-72
2022/08/31 09:01:25;;;;;;;9.17;7.00;;;;;;;;;;5040019;28;20219;-71
2022/08/31 09:03:55;;;;;;;9.83;7.63;;;;;;;;;;5034410;28;20216;-72
2022/08/31 09:07:01;;;;;;;10.03;7.23;;;;;;;;;;5060198;28;20189;-71
2022/08/31 09:09:33;;;;;;;9.57;7.53;;;;;;;;;;5041075;28;20441;-71
2022/08/31 09:12:37;;;;;;;7.70;6.90;;;;;;;;;;5040965;28;20196;-71
2022/08/31 09:15:27;;;;;;;9.37;7.60;;;;;;;;;;5021362;28;20332;-72
2022/08/31 09:18:09;;;;;;;8.57;7.27;;;;;;;;;;5042231;28;20696;-71
2022/08/31 09:20:35;;;;;;;7.90;7.10;;;;;;;;;;5055665;28;20184;-72
2022/08/31 09:23:06;;;;;;;11.50;8.53;;;;;;;;;;5056398;28;20200;-72
2022/08/31 09:25:37;;;;;;;10.50;8.13;;;;;;;;;;5041297;28;20687;-72
2022/08/31 09:28:14;;;;;;;11.20;8.07;;;;;;;;;;5023192;28;20255;-72
2022/08/31 09:30:50;;;;;;;7.83;7.00;;;;;;;;;;5056966;28;20589;-72
2022/08/31 09:33:17;;;;;;;8.50;7.60;;;;;;;;;;5060805;28;20223;-72
2022/08/31 09:35:43;;;;;;;8.57;7.67;;;;;;;;;;5059223;28;20875;-72
2022/08/31 09:38:11;;;;;;;7.60;6.90;;;;;;;;;;5059103;28;20193;-72
2022/08/31 09:40:39;;;;;;;7.53;6.50;;;;;;;;;;5056718;28;20227;-72
2022/08/31 09:43:07;;;;;;;8.97;7.30;;;;;;;;;;5057694;28;20205;-72
2022/08/31 09:45:36;;;;;;;8.80;7.90;;;;;;;;;;5057575;28;20918;-72
2022/08/31 09:48:04;;;;;;;8.23;7.43;;;;;;;;;;5054603;28;20214;-72
2022/08/31 09:50:35;;;;;;;8.93;7.67;;;;;;;;;;5063671;28;20181;-72
2022/08/31 09:56:22;;;;;;;8.17;7.37;;;;;;;;;;5061901;28;20268;-72
2022/08/31 09:59:01;;;;;;;10.40;7.50;;;;;;;;;;5057799;28;20194;-72
2022/08/31 10:01:37;;;;;;;9.07;7.70;;;;;;;;;;5057244;28;20868;-72
2022/08/31 10:04:18;;;;;;;8.07;6.83;;;;;;;;;;5057073;28;20224;-72
2022/08/31 10:07:10;;;;;;;8.30;7.53;;;;;;;;;;5053100;28;20177;-75
2022/08/31 10:09:39;;;;;;;10.20;8.53;;;;;;;;;;5053209;28;20201;-72
2022/08/31 10:12:10;;;;;;;9.33;7.90;;;;;;;;;;5060393;28;20180;-72
2022/08/31 10:14:42;;;;;;;9.50;8.30;;;;;;;;;;5064796;28;20217;-72
2022/08/31 10:17:22;;;;;;;8.97;8.00;;;;;;;;;;5066133;28;20186;-72
2022/08/31 10:19:52;;;;;;;10.87;9.87;;;;;;;;;;5057486;28;21239;-73
2022/08/31 10:22:29;;;;;;;9.30;8.40;;;;;;;;;;5062687;28;20280;-72
2022/08/31 10:25:17;;;;;;;10.27;9.23;;;;;;;;;;5064725;28;21322;-73
2022/08/31 10:27:49;;;;;;;10.70;9.57;;;;;;;;;;5061536;28;20178;-72
2022/08/31 10:30:26;;;;;;;9.60;8.60;;;;;;;;;;5062626;28;20630;-73
2022/08/31 10:32:55;;;;;;;9.63;8.63;;;;;;;;;;5061599;28;20168;-72
2022/08/31 10:35:36;;;;;;;8.53;7.73;;;;;;;;;;5058437;28;20200;-71
2022/08/31 10:38:24;;;;;;;9.10;8.20;;;;;;;;;;5061427;28;20185;-73
2022/08/31 10:40:51;;;;;;;10.53;7.50;;;;;;;;;;5058308;28;20189;-73
2022/08/31 10:43:22;;;;;;;11.03;8.27;;;;;;;;;;5041206;28;20573;-72
2022/08/31 10:45:51;;;;;;;11.17;8.87;;;;;;;;;;5069716;28;20209;-73
2022/08/31 10:48:18;;;;;;;9.97;8.60;;;;;;;;;;5070307;28;20256;-71
2022/08/31 10:51:07;;;;;;;11.60;8.40;;;;;;;;;;5070807;28;20181;-73
2022/08/31 10:53:42;;;;;;;10.23;9.10;;;;;;;;;;5053086;28;20284;-73
2022/08/31 10:56:20;;;;;;;9.33;8.40;;;;;;;;;;5056686;28;20183;-73
2022/08/31 10:59:05;;;;;;;8.40;7.60;;;;;;;;;;5060202;28;20188;-73
2022/08/31 11:01:41;;;;;;;9.10;8.13;;;;;;;;;;5054172;28;20192;-73
2022/08/31 11:04:33;;;;;;;9.57;8.67;;;;;;;;;;5063047;28;20752;-73
2022/08/31 11:07:32;;;;;;;8.63;7.83;;;;;;;;;;5049932;28;20756;-74
2022/08/31 11:10:04;;;;;;;7.63;6.93;;;;;;;;;;5008752;28;20572;-73
2022/08/31 11:12:39;;;;;;;9.13;7.60;;;;;;;;;;5059719;28;20205;-73
2022/08/31 11:15:27;;;;;;;9.90;8.90;;;;;;;;;;5062385;28;20192;-73
2022/08/31 11:18:11;;;;;;;10.83;8.30;;;;;;;;;;5064418;28;20302;-72
2022/08/31 11:20:50;;;;;;;9.57;8.57;;;;;;;;;;5056248;28;20299;-73
2022/08/31 11:23:28;;;;;;;9.00;7.70;;;;;;;;;;5063816;28;20239;-73
2022/08/31 11:26:13;;;;;;;8.50;7.70;;;;;;;;;;5066494;28;20217;-73
2022/08/31 11:28:44;;;;;;;12.73;8.53;;;;;;;;;;5057958;28;20622;-73
2022/08/31 11:31:22;;;;;;;10.13;9.03;;;;;;;;;;5067035;28;20811;-73
2022/08/31 11:33:53;;;;;;;12.93;9.93;;;;;;;;;;5061822;28;20234;-72
2022/08/31 11:36:39;;;;;;;9.93;9.00;;;;;;;;;;5059405;28;20189;-73
2022/08/31 11:39:34;;;;;;;10.47;9.00;;;;;;;;;;5062326;28;20244;-73
2022/08/31 11:42:01;;;;;;;10.17;9.27;;;;;;;;;;5061581;28;20188;-73
2022/08/31 11:44:38;;;;;;;10.57;9.47;;;;;;;;;;5064451;28;20244;-73
2022/08/31 11:47:11;;;;;;;10.77;9.67;;;;;;;;;;5069084;28;20282;-73
2022/08/31 11:49:48;;;;;;;11.60;9.60;;;;;;;;;;5045313;28;20264;-73
2022/08/31 11:52:23;;;;;;;10.97;9.87;;;;;;;;;;5063096;28;20859;-73
2022/08/31 11:54:51;;;;;;;11.27;9.80;;;;;;;;;;5064064;28;20216;-73
2022/08/31 11:57:19;;;;;;;11.20;10.10;;;;;;;;;;5069734;28;20624;-73
2022/08/31 11:59:46;;;;;;;11.63;10.43;;;;;;;;;;5051429;28;20181;-73
2022/08/31 12:02:18;;;;;;;11.47;10.00;;;;;;;;;;5061084;28;20184;-73
2022/08/31 12:04:50;;;;;;;13.00;10.67;;;;;;;;;;5070490;28;20279;-72
2022/08/31 12:07:25;;;;;;;13.63;11.07;;;;;;;;;;5060813;28;20550;-73
2022/08/31 12:10:00;;;;;;;11.67;10.57;;;;;;;;;;5066132;28;20184;-70
2022/08/31 12:12:41;;;;;;;13.37;11.07;;;;;;;;;;5041529;28;20223;-70
2022/08/31 12:15:26;;;;;;;10.83;9.67;;;;;;;;;;5073926;28;20375;-72
2022/08/31 12:17:56;;;;;;;12.03;10.40;;;;;;;;;;5076349;28;20181;-71
2022/08/31 12:23:38;;;;;;;12.20;10.57;;;;;;;;;;5059492;28;20478;-72
2022/08/31 12:26:07;;;;;;;12.83;11.03;;;;;;;;;;5066856;28;20762;-72
2022/08/31 12:28:52;;;;;;;12.47;10.57;;;;;;;;;;5063810;28;20185;-72
2022/08/31 12:31:19;;;;;;;13.30;11.10;;;;;;;;;;5065054;28;20490;-72
2022/08/31 12:34:04;;;;;;;12.80;11.40;;;;;;;;;;5068224;28;20193;-72
2022/08/31 12:36:32;;;;;;;13.87;12.30;;;;;;;;;;5076763;28;20224;-72
2022/08/31 12:39:12;;;;;;;13.10;11.83;;;;;;;;;;5061431;28;20181;-72
2022/08/31 12:41:49;;;;;;;12.10;10.83;;;;;;;;;;5071636;28;20659;-72
2022/08/31 12:44:20;;;;;;;14.37;11.37;;;;;;;;;;5041382;28;20240;-72
2022/08/31 12:47:05;;;;;;;12.00;10.80;;;;;;;;;;5061839;28;20269;-72
2022/08/31 12:49:34;;;;;;;12.50;11.20;;;;;;;;;;5057291;28;20269;-72
2022/08/31 12:52:00;;;;;;;15.00;12.43;;;;;;;;;;5058679;28;20657;-72
2022/08/31 12:54:45;;;;;;;15.27;11.47;;;;;;;;;;5066564;28;20201;-72
2022/08/31 12:57:35;;;;;;;10.73;9.70;;;;;;;;;;5062185;28;20197;-72
2022/08/31 13:00:06;;;;;;;11.33;10.23;;;;;;;;;;5063571;28;20181;-72
2022/08/31 13:02:33;;;;;;;12.17;10.37;;;;;;;;;;5059008;28;20177;-72
2022/08/31 13:05:00;;;;;;;10.80;9.70;;;;;;;;;;5065735;28;20213;-72
2022/08/31 13:07:30;;;;;;;14.13;10.90;;;;;;;;;;5068107;28;20641;-72
2022/08/31 13:10:03;;;;;;;11.67;10.50;;;;;;;;;;5045731;28;20259;-72
2022/08/31 13:12:29;;;;;;;11.63;10.53;;;;;;;;;;5060038;28;20220;-71
2022/08/31 13:14:55;;;;;;;10.67;9.40;;;;;;;;;;5067893;28;20638;-72
2022/08/31 13:17:21;;;;;;;14.70;9.17;;;;;;;;;;5069646;28;20185;-72
2022/08/31 13:19:55;;;;;;;11.73;10.30;;;;;;;;;;5068745;28;20272;-72
2022/08/31 13:22:40;;;;;;;11.77;8.97;;;;;;;;;;5063873;28;20713;-72
2022/08/31 13:25:35;;;;;;;10.00;9.00;;;;;;;;;;5067418;28;20310;-72
2022/08/31 13:28:24;;;;;;;10.00;7.67;;;;;;;;;;5063917;28;20188;-72
2022/08/31 13:30:57;;;;;;;10.10;9.10;;;;;;;;;;5062634;28;20671;-72
2022/08/31 13:33:30;;;;;;;9.23;8.33;;;;;;;;;;5058803;28;20699;-72
2022/08/31 13:36:02;;;;;;;10.07;9.10;;;;;;;;;;5059667;28;20191;-72
2022/08/31 13:38:41;;;;;;;8.80;8.00;;;;;;;;;;5046271;28;20537;-72
2022/08/31 13:41:22;;;;;;;10.23;9.20;;;;;;;;;;5063668;28;20174;-72
2022/08/31 13:43:57;;;;;;;8.60;7.70;;;;;;;;;;5063404;28;20272;-72
2022/08/31 13:46:35;;;;;;;8.10;7.23;;;;;;;;;;5067301;28;20265;-72
2022/08/31 13:49:03;;;;;;;8.83;8.00;;;;;;;;;;5047532;28;20179;-72
2022/08/31 13:51:32;;;;;;;7.77;6.87;;;;;;;;;;5066234;28;20203;-73
2022/08/31 13:54:05;;;;;;;7.80;6.50;;;;;;;;;;5060460;28;20261;-73
2022/08/31 13:59:22;;;;;;;7.97;7.27;;;;;;;;;;5056122;28;20199;-73
2022/08/31 14:01:48;;;;;;;10.03;6.93;;;;;;;;;;5058155;28;20174;-73
2022/08/31 14:04:47;;;;;;;7.60;6.80;;;;;;;;;;5064290;28;20292;-73
2022/08/31 14:07:22;;;;;;;7.13;6.43;;;;;;;;;;5063816;28;20182;-73
2022/08/31 14:09:55;;;;;;;7.40;6.70;;;;;;;;;;5046092;28;20236;-73
2022/08/31 14:12:31;;;;;;;7.67;6.77;;;;;;;;;;5066062;28;20189;-73
2022/08/31 14:14:58;;;;;;;7.17;6.50;;;;;;;;;;5064966;28;20265;-73
2022/08/31 14:17:25;;;;;;;8.33;5.80;;;;;;;;;;5064450;28;20548;-73
2022/08/31 14:19:51;;;;;;;8.47;6.60;;;;;;;;;;5063482;28;20174;-73
2022/08/31 14:22:28;;;;;;;6.23;5.70;;;;;;;;;;5061771;28;20303;-72
2022/08/31 14:24:55;;;;;;;8.23;6.37;;;;;;;;;;5063987;28;20225;-73
2022/08/31 14:27:22;;;;;;;6.70;6.10;;;;;;;;;;5063410;28;20315;-72
2022/08/31 14:29:50;;;;;;;6.67;6.07;;;;;;;;;;5061475;28;20188;-73
2022/08/31 14:32:17;;;;;;;7.33;6.27;;;;;;;;;;5065319;28;20181;-73
2022/08/31 14:34:48;;;;;;;7.13;6.13;;;;;;;;;;5062592;28;20230;-72
2022/08/31 14:37:18;;;;;;;8.10;6.40;;;;;;;;;;5060955;28;20199;-72
2022/08/31 14:39:46;;;;;;;7.33;5.20;;;;;;;;;;5045818;28;20772;-73
2022/08/31 14:42:16;;;;;;;6.50;5.70;;;;;;;;;;5064702;28;20183;-73
2022/08/31 14:44:44;;;;;;;7.20;6.30;;;;;;;;;;5063155;28;20321;-73
2022/08/31 14:47:11;;;;;;;6.67;6.07;;;;;;;;;;5065101;28;20189;-73
2022/08/31 14:49:44;;;;;;;6.70;6.10;;;;;;;;;;5062107;28;20180;-73
2022/08/31 14:52:11;;;;;;;6.87;6.27;;;;;;;;;;5061362;28;20302;-73
2022/08/31 14:54:38;;;;;;;9.53;6.63;;;;;;;;;;5054610;28;20200;-72
2022/08/31 14:57:06;;;;;;;7.60;6.80;;;;;;;;;;5058215;28;20189;-72
2022/08/31 14:59:33;;;;;;;9.40;6.40;;;;;;;;;;5063960;28;20667;-72
2022/08/31 15:01:59;;;;;;;8.53;6.87;;;;;;;;;;5069629;28;20230;-72
2022/08/31 15:04:27;;;;;;;7.60;6.30;;;;;;;;;;5047712;28;20213;-72
2022/08/31 15:07:01;;;;;;;7.47;6.37;;;;;;;;;;5057709;28;20182;-72
2022/08/31 15:09:28;;;;;;;7.00;6.30;;;;;;;;;;5066506;28;20183;-73
2022/08/31 15:11:59;;;;;;;5.53;5.03;;;;;;;;;;5069401;28;20233;-72
2022/08/31 15:14:25;;;;;;;5.90;5.40;;;;;;;;;;5071341;28;20201;-73
2022/08/31 15:16:52;;;;;;;5.93;5.20;;;;;;;;;;5062578;28;20541;-73
2022/08/31 15:19:18;;;;;;;6.17;5.10;;;;;;;;;;5070449;28;20253;-73
2022/08/31 15:21:51;;;;;;;5.37;4.80;;;;;;;;;;5065481;28;20185;-73
2022/08/31 15:24:22;;;;;;;6.13;4.33;;;;;;;;;;5069158;28;20222;-72
2022/08/31 15:26:50;;;;;;;6.30;4.10;;;;;;;;;;5061670;28;20224;-72
2022/08/31 15:29:17;;;;;;;6.03;4.00;;;;;;;;;;5069227;28;20272;-72
2022/08/31 15:31:46;;;;;;;4.90;3.70;;;;;;;;;;5068180;28;20178;-72
2022/08/31 15:34:17;;;;;;;4.13;3.70;;;;;;;;;;5068145;28;20630;-72